Time;durP1;ratioP1;P1;durP2;ratioP2;P2;SDS_P1;SDS_P2;PMS_P1;PMS_P2;Temp;Humidity;BMP_temperature;BMP_pressure;BME280_temperature;BME280_humidity;BME280_pressure;Samples;Min_cycle;Max_cycle;Signal;HPM_P1;HPM_P2
2022/04/23 00:01:44;;;;;;;14.95;12.90;;;;;;;;;;5073583;28;20536;-27
2022/04/23 00:04:11;;;;;;;15.05;13.10;;;;;;;;;;5073366;28;20500;-27
2022/04/23 00:06:37;;;;;;;15.40;13.68;;;;;;;;;;5073280;28;20398;-27
2022/04/23 00:09:04;;;;;;;17.50;14.48;;;;;;;;;;5072977;28;20037;-27
2022/04/23 00:11:30;;;;;;;14.68;13.27;;;;;;;;;;5072582;28;20055;-27
2022/04/23 00:13:56;;;;;;;14.80;13.20;;;;;;;;;;5072731;28;20086;-28
2022/04/23 00:16:24;;;;;;;14.82;13.20;;;;;;;;;;5072734;28;20048;-28
2022/04/23 00:18:51;;;;;;;15.07;13.55;;;;;;;;;;5072780;28;20043;-28
2022/04/23 00:21:18;;;;;;;16.10;14.15;;;;;;;;;;5071578;28;20115;-25
2022/04/23 00:23:46;;;;;;;17.75;14.45;;;;;;;;;;5071802;28;20048;-30
2022/04/23 00:26:12;;;;;;;16.45;13.90;;;;;;;;;;5072358;28;20128;-25
2022/04/23 00:28:38;;;;;;;18.40;15.02;;;;;;;;;;5072289;28;20111;-26
2022/04/23 00:31:05;;;;;;;16.50;14.35;;;;;;;;;;5071151;28;20068;-29
2022/04/23 00:33:32;;;;;;;17.70;14.68;;;;;;;;;;5069066;28;20090;-29
2022/04/23 00:35:58;;;;;;;15.65;13.95;;;;;;;;;;5071238;28;20127;-28
2022/04/23 00:38:25;;;;;;;16.98;13.98;;;;;;;;;;5071045;28;20433;-31
2022/04/23 00:40:51;;;;;;;17.73;14.35;;;;;;;;;;5071723;28;20456;-33
2022/04/23 00:43:28;;;;;;;16.67;14.98;;;;;;;;;;5069981;28;20040;-29
2022/04/23 00:45:55;;;;;;;19.27;14.70;;;;;;;;;;5071775;28;20052;-29
2022/04/23 00:48:21;;;;;;;16.15;13.32;;;;;;;;;;5070654;28;20033;-31
2022/04/23 00:50:48;;;;;;;19.25;15.48;;;;;;;;;;5070754;28;20147;-29
2022/04/23 00:53:15;;;;;;;17.00;15.20;;;;;;;;;;5070929;28;20045;-29
2022/04/23 00:55:41;;;;;;;16.90;15.07;;;;;;;;;;5071004;28;20127;-29
2022/04/23 00:58:07;;;;;;;18.25;15.07;;;;;;;;;;5070285;28;20075;-29
2022/04/23 01:00:34;;;;;;;16.52;14.77;;;;;;;;;;5071013;28;20048;-27
2022/04/23 01:03:00;;;;;;;16.92;14.88;;;;;;;;;;5052620;28;20409;-28
2022/04/23 01:05:26;;;;;;;17.80;16.00;;;;;;;;;;5070412;28;20097;-29
2022/04/23 01:07:53;;;;;;;17.67;15.63;;;;;;;;;;5070602;28;20033;-30
2022/04/23 01:10:19;;;;;;;18.60;15.30;;;;;;;;;;5071239;28;20119;-28
2022/04/23 01:12:46;;;;;;;17.42;15.40;;;;;;;;;;5069845;28;20111;-33
2022/04/23 01:15:16;;;;;;;17.10;14.75;;;;;;;;;;5071295;28;20041;-28
2022/04/23 01:17:42;;;;;;;16.23;14.63;;;;;;;;;;5071112;28;20036;-30
2022/04/23 01:20:12;;;;;;;16.70;14.90;;;;;;;;;;5068341;28;20040;-29
2022/04/23 01:22:39;;;;;;;18.30;16.40;;;;;;;;;;5070432;28;20502;-30
2022/04/23 01:25:06;;;;;;;17.10;15.23;;;;;;;;;;5070041;28;20048;-29
2022/04/23 01:27:34;;;;;;;16.70;14.90;;;;;;;;;;5070565;28;20508;-28
2022/04/23 01:30:00;;;;;;;17.60;14.85;;;;;;;;;;5070433;28;20051;-29
2022/04/23 01:32:26;;;;;;;18.05;15.55;;;;;;;;;;5070724;28;20041;-28
2022/04/23 01:34:52;;;;;;;18.08;15.13;;;;;;;;;;5069522;28;20033;-30
2022/04/23 01:37:18;;;;;;;17.67;15.50;;;;;;;;;;5061841;28;20488;-30
2022/04/23 01:39:45;;;;;;;18.20;15.75;;;;;;;;;;5065691;28;20060;-29
2022/04/23 01:42:11;;;;;;;17.65;15.77;;;;;;;;;;5064337;28;20040;-28
2022/04/23 01:44:37;;;;;;;17.88;15.98;;;;;;;;;;5070248;28;20045;-27
2022/04/23 01:47:03;;;;;;;17.55;15.85;;;;;;;;;;5071173;28;20037;-27
2022/04/23 01:49:29;;;;;;;16.75;15.05;;;;;;;;;;5069650;28;20123;-28
2022/04/23 01:51:55;;;;;;;16.88;15.15;;;;;;;;;;5069926;28;20047;-28
2022/04/23 01:54:21;;;;;;;16.90;14.52;;;;;;;;;;5049781;28;20057;-28
2022/04/23 01:56:47;;;;;;;17.15;14.93;;;;;;;;;;5065075;28;20041;-29
2022/04/23 01:59:14;;;;;;;16.45;14.60;;;;;;;;;;5071153;28;20563;-29
2022/04/23 02:01:41;;;;;;;17.00;15.30;;;;;;;;;;5069802;28;20043;-29
2022/04/23 02:04:08;;;;;;;16.63;14.93;;;;;;;;;;5070744;28;20444;-29
2022/04/23 02:06:37;;;;;;;17.02;15.25;;;;;;;;;;5070625;28;20040;-30
2022/04/23 02:09:03;;;;;;;17.15;15.32;;;;;;;;;;5070933;28;20124;-32
2022/04/23 02:11:31;;;;;;;16.35;14.73;;;;;;;;;;5070617;28;20040;-29
2022/04/23 02:13:57;;;;;;;18.83;16.08;;;;;;;;;;5070618;28;20053;-28
2022/04/23 02:16:23;;;;;;;18.27;14.98;;;;;;;;;;5070934;28;20048;-28
2022/04/23 02:18:50;;;;;;;16.98;15.05;;;;;;;;;;5070387;28;20090;-29
2022/04/23 02:21:16;;;;;;;17.27;15.50;;;;;;;;;;5071173;28;20048;-28
2022/04/23 02:23:43;;;;;;;17.27;15.57;;;;;;;;;;5070129;28;20136;-28
2022/04/23 02:26:10;;;;;;;16.42;14.73;;;;;;;;;;5070858;28;20095;-28
2022/04/23 02:28:39;;;;;;;16.15;14.55;;;;;;;;;;5070313;28;20124;-30
2022/04/23 02:31:05;;;;;;;16.63;14.82;;;;;;;;;;5070818;28;20405;-30
2022/04/23 02:33:31;;;;;;;16.60;15.00;;;;;;;;;;5067919;28;20119;-29
2022/04/23 02:35:58;;;;;;;16.27;14.55;;;;;;;;;;5070404;28;20041;-29
2022/04/23 02:38:24;;;;;;;17.30;15.50;;;;;;;;;;5069974;28;20409;-29
2022/04/23 02:40:50;;;;;;;14.50;13.07;;;;;;;;;;5070483;28;20076;-29
2022/04/23 02:43:16;;;;;;;17.10;14.90;;;;;;;;;;5052069;28;20060;-28
2022/04/23 02:45:42;;;;;;;16.95;15.25;;;;;;;;;;5072070;28;20085;-28
2022/04/23 02:48:10;;;;;;;17.77;15.88;;;;;;;;;;5072620;28;20044;-31
2022/04/23 02:50:37;;;;;;;16.58;14.88;;;;;;;;;;5067690;28;20040;-28
2022/04/23 02:53:04;;;;;;;16.77;15.07;;;;;;;;;;5055323;28;20414;-28
2022/04/23 02:55:31;;;;;;;15.70;14.13;;;;;;;;;;5073927;28;20505;-28
2022/04/23 02:58:01;;;;;;;18.67;15.50;;;;;;;;;;5072318;28;20055;-29
2022/04/23 03:00:27;;;;;;;17.10;15.30;;;;;;;;;;5054281;28;20076;-28
2022/04/23 03:02:54;;;;;;;16.73;13.63;;;;;;;;;;5053768;28;20128;-28
2022/04/23 03:05:21;;;;;;;15.98;14.38;;;;;;;;;;5073203;28;20079;-31
2022/04/23 03:07:48;;;;;;;16.15;14.38;;;;;;;;;;5073327;28;20032;-29
2022/04/23 03:10:14;;;;;;;15.45;13.85;;;;;;;;;;5073354;28;20036;-28
2022/04/23 03:12:41;;;;;;;15.90;13.95;;;;;;;;;;5073839;28;20044;-31
2022/04/23 03:15:11;;;;;;;16.35;14.63;;;;;;;;;;5071813;28;20048;-30
2022/04/23 03:17:38;;;;;;;15.90;14.35;;;;;;;;;;5055774;28;20040;-28
2022/04/23 03:20:05;;;;;;;15.07;13.50;;;;;;;;;;5072817;28;20075;-28
2022/04/23 03:22:31;;;;;;;16.48;13.23;;;;;;;;;;5072516;28;20364;-28
2022/04/23 03:24:57;;;;;;;15.80;13.88;;;;;;;;;;5068919;28;20090;-28
2022/04/23 03:27:23;;;;;;;14.77;12.60;;;;;;;;;;5054298;28;20052;-29
2022/04/23 03:29:49;;;;;;;14.85;13.25;;;;;;;;;;5056039;28;20040;-29
2022/04/23 03:32:16;;;;;;;16.33;14.00;;;;;;;;;;5073541;28;20040;-28
2022/04/23 03:34:42;;;;;;;15.45;13.75;;;;;;;;;;5073091;28;20494;-28
2022/04/23 03:37:08;;;;;;;15.45;13.93;;;;;;;;;;5071284;28;20097;-29
2022/04/23 03:39:34;;;;;;;17.92;14.68;;;;;;;;;;5072704;28;20040;-30
2022/04/23 03:42:01;;;;;;;15.30;13.65;;;;;;;;;;5072907;28;20052;-29
2022/04/23 03:44:29;;;;;;;16.23;14.18;;;;;;;;;;5072340;28;20490;-30
2022/04/23 03:46:56;;;;;;;16.38;14.50;;;;;;;;;;5072500;28;20129;-29
2022/04/23 03:49:23;;;;;;;14.85;13.35;;;;;;;;;;5072840;28;20509;-29
2022/04/23 03:51:49;;;;;;;15.32;13.65;;;;;;;;;;5072861;28;20039;-29
2022/04/23 03:54:16;;;;;;;15.15;13.55;;;;;;;;;;5072733;28;20516;-29
2022/04/23 03:56:42;;;;;;;14.82;13.30;;;;;;;;;;5071503;28;20040;-26
2022/04/23 03:59:09;;;;;;;15.80;13.55;;;;;;;;;;5072600;28;20036;-30
2022/04/23 04:01:35;;;;;;;16.10;14.50;;;;;;;;;;5072892;28;20040;-27
2022/04/23 04:04:01;;;;;;;14.80;13.10;;;;;;;;;;5073043;28;20040;-27
2022/04/23 04:06:27;;;;;;;15.43;12.52;;;;;;;;;;5073152;28;20553;-25
2022/04/23 04:08:54;;;;;;;16.15;12.75;;;;;;;;;;5072856;28;20047;-26
2022/04/23 04:11:20;;;;;;;14.65;12.95;;;;;;;;;;5072986;28;20043;-25
2022/04/23 04:13:47;;;;;;;14.52;13.00;;;;;;;;;;5072927;28;20371;-28
2022/04/23 04:16:14;;;;;;;13.95;12.27;;;;;;;;;;5072986;28;20051;-26
2022/04/23 04:18:40;;;;;;;14.13;12.73;;;;;;;;;;5072906;28;20509;-26
2022/04/23 04:21:07;;;;;;;13.52;12.20;;;;;;;;;;5072671;28;20049;-26
2022/04/23 04:23:33;;;;;;;13.85;11.93;;;;;;;;;;5072521;28;20037;-27
2022/04/23 04:26:00;;;;;;;14.55;11.77;;;;;;;;;;5072524;28;20036;-26
2022/04/23 04:28:26;;;;;;;12.90;11.57;;;;;;;;;;5072612;28;20032;-25
2022/04/23 04:33:37;;;;;;;12.98;11.50;;;;;;;;;;5072417;28;20449;-26
2022/04/23 04:36:03;;;;;;;12.52;11.05;;;;;;;;;;5072250;28;20067;-26
2022/04/23 04:38:30;;;;;;;12.18;11.00;;;;;;;;;;5054244;28;20512;-25
2022/04/23 04:40:56;;;;;;;12.32;11.05;;;;;;;;;;5061911;28;20079;-26
2022/04/23 04:43:22;;;;;;;10.75;9.68;;;;;;;;;;5052343;28;20072;-26
2022/04/23 04:45:48;;;;;;;13.60;10.75;;;;;;;;;;5052210;28;20402;-25
2022/04/23 04:48:15;;;;;;;12.27;11.07;;;;;;;;;;5052203;28;20036;-26
2022/04/23 04:50:41;;;;;;;12.07;10.77;;;;;;;;;;5053609;28;20075;-26
2022/04/23 04:53:07;;;;;;;11.50;10.30;;;;;;;;;;5072017;28;20052;-29
2022/04/23 04:55:34;;;;;;;11.18;10.10;;;;;;;;;;5067471;28;20047;-26
2022/04/23 04:58:00;;;;;;;11.23;9.68;;;;;;;;;;5071794;28;20398;-26
2022/04/23 05:00:27;;;;;;;11.35;10.25;;;;;;;;;;5022310;28;20383;-26
2022/04/23 05:02:54;;;;;;;11.73;10.52;;;;;;;;;;5051915;28;20060;-26
2022/04/23 05:05:20;;;;;;;10.80;9.73;;;;;;;;;;5070699;28;20032;-26
2022/04/23 05:07:46;;;;;;;10.38;9.38;;;;;;;;;;5062255;28;20502;-26
2022/04/23 05:10:12;;;;;;;11.60;10.50;;;;;;;;;;5038306;28;20067;-26
2022/04/23 05:12:38;;;;;;;11.02;10.02;;;;;;;;;;5071351;28;20041;-29
2022/04/23 05:15:05;;;;;;;10.45;9.35;;;;;;;;;;5071620;28;20399;-27
2022/04/23 05:17:32;;;;;;;10.45;9.55;;;;;;;;;;5071486;28;20040;-25
2022/04/23 05:19:58;;;;;;;10.63;9.63;;;;;;;;;;5071385;28;20044;-25
2022/04/23 05:22:25;;;;;;;9.75;8.95;;;;;;;;;;5071895;28;20044;-26
2022/04/23 05:24:51;;;;;;;10.98;9.90;;;;;;;;;;5071542;28;20080;-26
2022/04/23 05:27:17;;;;;;;10.68;9.57;;;;;;;;;;5071402;28;20037;-26
2022/04/23 05:29:43;;;;;;;10.40;9.35;;;;;;;;;;5068768;28;20037;-25
2022/04/23 05:32:09;;;;;;;10.27;9.38;;;;;;;;;;5058113;28;20033;-25
2022/04/23 05:34:35;;;;;;;10.57;9.55;;;;;;;;;;5016968;28;20472;-26
2022/04/23 05:37:02;;;;;;;10.38;9.45;;;;;;;;;;5068386;28;20036;-25
2022/04/23 05:39:28;;;;;;;11.18;10.02;;;;;;;;;;5071042;28;20132;-26
2022/04/23 05:41:54;;;;;;;11.02;9.90;;;;;;;;;;5071688;28;20160;-25
2022/04/23 05:44:20;;;;;;;10.35;9.45;;;;;;;;;;5071278;28;20052;-26
2022/04/23 05:46:46;;;;;;;10.75;9.73;;;;;;;;;;5049624;28;20123;-26
2022/04/23 05:49:12;;;;;;;11.60;10.35;;;;;;;;;;5051532;28;20041;-27
2022/04/23 05:51:38;;;;;;;10.00;9.02;;;;;;;;;;5066990;28;20126;-27
2022/04/23 05:54:04;;;;;;;11.02;9.93;;;;;;;;;;5071425;28;20056;-28
2022/04/23 05:56:30;;;;;;;11.20;10.10;;;;;;;;;;5071196;28;20044;-26
2022/04/23 05:58:56;;;;;;;10.85;9.85;;;;;;;;;;5071368;28;20409;-26
2022/04/23 06:01:22;;;;;;;10.80;9.70;;;;;;;;;;5071174;28;20505;-27
2022/04/23 06:03:49;;;;;;;11.45;10.43;;;;;;;;;;5071047;28;20486;-26
2022/04/23 06:06:15;;;;;;;11.38;10.30;;;;;;;;;;5070838;28;20036;-28
2022/04/23 06:08:42;;;;;;;11.40;10.30;;;;;;;;;;5071325;28;20037;-25
2022/04/23 06:11:08;;;;;;;15.75;10.68;;;;;;;;;;5070993;28;20072;-25
2022/04/23 06:13:34;;;;;;;12.10;10.60;;;;;;;;;;5071343;28;20051;-25
2022/04/23 06:16:00;;;;;;;10.93;9.82;;;;;;;;;;5070664;28;20710;-30
2022/04/23 06:18:26;;;;;;;11.70;10.60;;;;;;;;;;5070490;28;20040;-29
2022/04/23 06:20:52;;;;;;;11.82;10.63;;;;;;;;;;5056527;28;20407;-25
2022/04/23 06:23:18;;;;;;;11.73;10.55;;;;;;;;;;5055055;28;20049;-27
2022/04/23 06:25:44;;;;;;;11.52;10.43;;;;;;;;;;5055083;28;20084;-26
2022/04/23 06:28:10;;;;;;;13.32;10.63;;;;;;;;;;5054802;28;20062;-26
2022/04/23 06:30:39;;;;;;;12.80;11.35;;;;;;;;;;5054979;28;20037;-27
2022/04/23 06:33:06;;;;;;;13.20;11.90;;;;;;;;;;5073173;28;20075;-25
2022/04/23 06:35:32;;;;;;;11.90;10.85;;;;;;;;;;5074447;28;20044;-26
2022/04/23 06:37:58;;;;;;;13.02;11.57;;;;;;;;;;5074338;28;20127;-26
2022/04/23 06:40:24;;;;;;;12.18;10.65;;;;;;;;;;5074896;28;20044;-26
2022/04/23 06:42:50;;;;;;;13.13;11.82;;;;;;;;;;5074950;28;20098;-26
2022/04/23 06:45:17;;;;;;;13.15;11.75;;;;;;;;;;5074021;28;20128;-27
2022/04/23 06:47:43;;;;;;;12.73;11.43;;;;;;;;;;5074372;28;20600;-27
2022/04/23 06:50:09;;;;;;;12.52;11.32;;;;;;;;;;5074015;28;20119;-27
2022/04/23 06:52:35;;;;;;;13.70;11.90;;;;;;;;;;5074196;28;20040;-24
2022/04/23 06:55:01;;;;;;;13.75;12.35;;;;;;;;;;5073802;28;20044;-25
2022/04/23 06:57:27;;;;;;;13.07;11.63;;;;;;;;;;5074086;28;20037;-24
2022/04/23 06:59:54;;;;;;;13.35;12.05;;;;;;;;;;5074021;28;20119;-27
2022/04/23 07:02:20;;;;;;;12.95;11.68;;;;;;;;;;5073613;28;20032;-24
2022/04/23 07:04:46;;;;;;;14.68;12.23;;;;;;;;;;5073737;28;20127;-26
2022/04/23 07:07:12;;;;;;;13.50;12.13;;;;;;;;;;5073674;28;20032;-25
2022/04/23 07:09:38;;;;;;;13.82;12.48;;;;;;;;;;5073919;28;20111;-25
2022/04/23 07:12:05;;;;;;;15.27;11.93;;;;;;;;;;5073742;28;20398;-28
2022/04/23 07:14:32;;;;;;;13.80;12.40;;;;;;;;;;5073538;28;20055;-26
2022/04/23 07:16:59;;;;;;;13.32;12.02;;;;;;;;;;5073501;28;20080;-25
2022/04/23 07:19:25;;;;;;;12.82;11.57;;;;;;;;;;5073570;28;20033;-27
2022/04/23 07:21:51;;;;;;;13.38;12.05;;;;;;;;;;5073381;28;20068;-26
2022/04/23 07:24:17;;;;;;;15.07;11.60;;;;;;;;;;5073577;28;20041;-26
2022/04/23 07:26:43;;;;;;;14.13;12.23;;;;;;;;;;5073881;28;20060;-26
2022/04/23 07:29:10;;;;;;;14.02;12.05;;;;;;;;;;5073720;28;20037;-25
2022/04/23 07:31:36;;;;;;;12.88;11.57;;;;;;;;;;5072427;28;20050;-26
2022/04/23 07:39:32;;;;;;;13.80;11.90;;;;;;;;;;5073585;28;20132;-26
2022/04/23 07:42:01;;;;;;;14.57;11.00;;;;;;;;;;5073586;28;20044;-27
2022/04/23 07:44:27;;;;;;;14.93;11.07;;;;;;;;;;5073450;28;20123;-25
2022/04/23 07:46:53;;;;;;;12.57;11.27;;;;;;;;;;5071073;28;20086;-26
2022/04/23 07:49:19;;;;;;;14.40;11.95;;;;;;;;;;5067326;28;20437;-26
2022/04/23 07:51:49;;;;;;;14.07;11.43;;;;;;;;;;5055634;28;20045;-27
2022/04/23 07:54:15;;;;;;;15.70;11.57;;;;;;;;;;5073269;28;20098;-25
2022/04/23 07:56:42;;;;;;;11.70;10.50;;;;;;;;;;5059191;28;20041;-26
2022/04/23 07:59:08;;;;;;;12.30;10.75;;;;;;;;;;5053028;28;20079;-25
2022/04/23 08:01:34;;;;;;;11.75;10.60;;;;;;;;;;5052983;28;20110;-26
2022/04/23 08:04:02;;;;;;;13.50;10.48;;;;;;;;;;5052771;28;20194;-26
2022/04/23 08:06:29;;;;;;;11.70;10.25;;;;;;;;;;5053014;28;20487;-28
2022/04/23 08:08:55;;;;;;;15.25;10.52;;;;;;;;;;5056420;28;20047;-29
2022/04/23 08:11:22;;;;;;;11.85;10.35;;;;;;;;;;5071232;28;20041;-26
2022/04/23 08:13:50;;;;;;;11.93;10.00;;;;;;;;;;5072828;28;20055;-30
2022/04/23 08:16:16;;;;;;;12.48;9.80;;;;;;;;;;5071892;28;20041;-30
2022/04/23 08:18:42;;;;;;;12.07;10.88;;;;;;;;;;5072912;28;20094;-32
2022/04/23 08:21:08;;;;;;;11.45;10.30;;;;;;;;;;5071899;28;20091;-30
2022/04/23 08:23:34;;;;;;;10.38;9.23;;;;;;;;;;5071572;28;20032;-30
2022/04/23 08:26:01;;;;;;;10.43;9.40;;;;;;;;;;5069186;28;20303;-30
2022/04/23 08:31:12;;;;;;;11.20;10.10;;;;;;;;;;5065513;28;20047;-33
2022/04/23 08:36:23;;;;;;;12.02;10.90;;;;;;;;;;5061423;28;20033;-30
2022/04/23 08:38:49;;;;;;;16.13;11.15;;;;;;;;;;5070065;28;20093;-31
2022/04/23 08:41:15;;;;;;;10.93;9.82;;;;;;;;;;5072132;28;20067;-31
2022/04/23 08:43:41;;;;;;;11.70;10.43;;;;;;;;;;5070577;28;20494;-33
2022/04/23 08:46:09;;;;;;;13.90;10.25;;;;;;;;;;5064071;28;20458;-31
2022/04/23 08:48:38;;;;;;;11.80;9.90;;;;;;;;;;5055897;28;20038;-29
2022/04/23 08:51:07;;;;;;;11.13;10.07;;;;;;;;;;5054760;28;20048;-30
2022/04/23 08:53:35;;;;;;;11.25;10.15;;;;;;;;;;5056765;28;20036;-30
2022/04/23 08:56:01;;;;;;;11.38;10.23;;;;;;;;;;5058548;28;20497;-31
2022/04/23 08:58:29;;;;;;;10.80;9.80;;;;;;;;;;5063564;28;20041;-32
2022/04/23 09:00:55;;;;;;;11.38;10.27;;;;;;;;;;5056218;28;20414;-32
2022/04/23 09:03:21;;;;;;;11.95;10.52;;;;;;;;;;5056314;28;20468;-32
2022/04/23 09:05:53;;;;;;;11.13;9.90;;;;;;;;;;5057558;28;20072;-30
2022/04/23 09:08:19;;;;;;;11.80;10.48;;;;;;;;;;5062447;28;20040;-31
2022/04/23 09:10:46;;;;;;;11.52;10.43;;;;;;;;;;5056441;28;20113;-31
2022/04/23 09:13:25;;;;;;;11.27;10.25;;;;;;;;;;5057161;28;20498;-32
2022/04/23 09:24:22;;;;;;;11.10;10.00;;;;;;;;;;5060397;28;20040;-33
2022/04/23 09:27:06;;;;;;;10.73;9.65;;;;;;;;;;5067893;28;20043;-33
2022/04/23 09:29:32;;;;;;;11.55;10.32;;;;;;;;;;5063379;28;20049;-35
2022/04/23 09:32:15;;;;;;;11.43;10.35;;;;;;;;;;5052420;28;20517;-33
2022/04/23 09:34:42;;;;;;;11.45;10.43;;;;;;;;;;5051641;28;20049;-34
2022/04/23 09:37:11;;;;;;;11.48;10.43;;;;;;;;;;5062714;28;20107;-31
2022/04/23 09:39:38;;;;;;;11.05;9.90;;;;;;;;;;5069896;28;20543;-33
2022/04/23 09:42:12;;;;;;;10.93;9.85;;;;;;;;;;5070026;28;20048;-33
2022/04/23 09:44:38;;;;;;;11.75;10.68;;;;;;;;;;5065629;28;20040;-32
2022/04/23 09:47:04;;;;;;;10.93;9.93;;;;;;;;;;5064062;28;20113;-32
2022/04/23 09:49:30;;;;;;;10.98;10.00;;;;;;;;;;5063968;28;20080;-32
2022/04/23 09:52:00;;;;;;;11.20;10.30;;;;;;;;;;5056145;28;20033;-31
2022/04/23 09:54:30;;;;;;;11.07;9.98;;;;;;;;;;5063357;28;20047;-31
2022/04/23 09:56:57;;;;;;;10.95;9.95;;;;;;;;;;5062976;28;20033;-31
2022/04/23 09:59:23;;;;;;;11.23;10.23;;;;;;;;;;5068342;28;20064;-32
2022/04/23 10:01:50;;;;;;;11.77;10.32;;;;;;;;;;5063011;28;20098;-31
2022/04/23 10:04:26;;;;;;;10.68;9.70;;;;;;;;;;5067055;28;20041;-32
2022/04/23 10:06:52;;;;;;;11.10;9.95;;;;;;;;;;5067052;28;20398;-32
2022/04/23 10:09:21;;;;;;;10.65;9.65;;;;;;;;;;5056622;28;20124;-31
2022/04/23 10:11:50;;;;;;;10.32;9.50;;;;;;;;;;5057654;28;20048;-34
2022/04/23 10:14:20;;;;;;;11.43;10.32;;;;;;;;;;5060835;28;20101;-32
2022/04/23 10:16:47;;;;;;;11.20;10.00;;;;;;;;;;5067428;28;20040;-33
2022/04/23 10:19:15;;;;;;;12.85;10.98;;;;;;;;;;5072878;28;20048;-32
2022/04/23 10:21:58;;;;;;;11.75;10.65;;;;;;;;;;5072343;28;20040;-31
2022/04/23 10:24:43;;;;;;;11.02;10.13;;;;;;;;;;5064632;28;20052;-32
2022/04/23 10:27:10;;;;;;;11.68;10.60;;;;;;;;;;5072832;28;20128;-33
2022/04/23 10:29:37;;;;;;;11.48;10.25;;;;;;;;;;5070575;28;20282;-33
2022/04/23 10:32:12;;;;;;;11.10;10.05;;;;;;;;;;5070848;28;20152;-33
2022/04/23 10:34:40;;;;;;;11.13;10.10;;;;;;;;;;5070204;28;20048;-35
2022/04/23 10:37:19;;;;;;;11.27;10.27;;;;;;;;;;5070648;28;20036;-33
2022/04/23 10:39:51;;;;;;;10.32;9.43;;;;;;;;;;5070475;28;20480;-32
2022/04/23 10:42:17;;;;;;;11.77;10.48;;;;;;;;;;5070905;28;20036;-34
2022/04/23 10:44:44;;;;;;;10.95;9.95;;;;;;;;;;5072742;28;20047;-32
2022/04/23 10:47:12;;;;;;;10.88;9.77;;;;;;;;;;5069620;28;20037;-32
2022/04/23 10:49:38;;;;;;;14.20;10.02;;;;;;;;;;5067225;28;20394;-31
2022/04/23 10:52:04;;;;;;;10.60;9.57;;;;;;;;;;5067323;28;20047;-32
2022/04/23 10:54:47;;;;;;;10.55;9.57;;;;;;;;;;5065255;28;20052;-31
2022/04/23 10:57:14;;;;;;;10.40;9.40;;;;;;;;;;5066016;28;20397;-30
2022/04/23 10:59:46;;;;;;;10.50;9.50;;;;;;;;;;5070431;28;20037;-32
2022/04/23 11:02:21;;;;;;;14.68;9.45;;;;;;;;;;5065770;28;20557;-31
2022/04/23 11:13:31;;;;;;;9.43;8.52;;;;;;;;;;5065519;28;20225;-31
2022/04/23 11:16:06;;;;;;;9.40;8.60;;;;;;;;;;5068887;28;20033;-32
2022/04/23 11:18:33;;;;;;;9.73;8.82;;;;;;;;;;5072817;28;20518;-32
2022/04/23 11:21:05;;;;;;;9.90;9.00;;;;;;;;;;5071922;28;20490;-32
2022/04/23 11:23:32;;;;;;;10.68;9.70;;;;;;;;;;5063702;28;20055;-33
2022/04/23 11:25:58;;;;;;;10.35;9.32;;;;;;;;;;5072284;28;20116;-33
2022/04/23 11:28:24;;;;;;;10.48;9.57;;;;;;;;;;5073413;28;20051;-33
2022/04/23 11:30:52;;;;;;;11.32;9.13;;;;;;;;;;5071493;28;20047;-31
2022/04/23 11:33:18;;;;;;;10.20;9.30;;;;;;;;;;5060250;28;20554;-31
2022/04/23 11:35:44;;;;;;;9.80;7.95;;;;;;;;;;5070933;28;20037;-33
2022/04/23 11:38:26;;;;;;;10.45;9.43;;;;;;;;;;5055141;28;20123;-32
2022/04/23 11:40:52;;;;;;;9.93;9.10;;;;;;;;;;5066763;28;20187;-31
2022/04/23 11:43:32;;;;;;;9.77;8.95;;;;;;;;;;5055061;28;20488;-30
2022/04/23 11:46:06;;;;;;;9.75;8.98;;;;;;;;;;5058918;28;20060;-33
2022/04/23 11:49:01;;;;;;;9.45;8.65;;;;;;;;;;5072483;28;20043;-34
2022/04/23 11:51:27;;;;;;;9.52;8.35;;;;;;;;;;5044951;28;20398;-32
2022/04/23 11:53:58;;;;;;;9.30;8.50;;;;;;;;;;5068105;28;20040;-29
2022/04/23 11:56:28;;;;;;;9.23;8.30;;;;;;;;;;5072867;28;20520;-31
2022/04/23 11:58:56;;;;;;;9.75;8.93;;;;;;;;;;5062297;28;20053;-34
2022/04/23 12:01:25;;;;;;;8.23;7.35;;;;;;;;;;5067191;28;20045;-31
2022/04/23 12:03:51;;;;;;;8.18;7.05;;;;;;;;;;5062236;28;20128;-31
2022/04/23 12:06:18;;;;;;;7.72;7.22;;;;;;;;;;5066479;28;20064;-32
2022/04/23 12:08:44;;;;;;;7.75;6.55;;;;;;;;;;5058934;28;20122;-34
2022/04/23 12:11:23;;;;;;;7.35;6.13;;;;;;;;;;5042203;28;20049;-32
2022/04/23 12:13:49;;;;;;;7.18;6.47;;;;;;;;;;5066886;28;20047;-32
2022/04/23 12:16:30;;;;;;;6.78;5.72;;;;;;;;;;5066097;28;20039;-32
2022/04/23 12:19:01;;;;;;;8.07;7.10;;;;;;;;;;5070092;28;20080;-35
2022/04/23 12:21:27;;;;;;;6.68;6.07;;;;;;;;;;5073587;28;20045;-32
2022/04/23 12:23:53;;;;;;;7.05;6.40;;;;;;;;;;5070922;28;20564;-33
2022/04/23 12:26:21;;;;;;;6.57;6.07;;;;;;;;;;5071234;28;20258;-31
2022/04/23 12:42:30;;;;;;;6.95;6.25;;;;;;;;;;5065763;28;20082;-31
2022/04/23 12:44:56;;;;;;;8.98;7.43;;;;;;;;;;5062806;28;20044;-32
2022/04/23 12:47:35;;;;;;;7.28;6.50;;;;;;;;;;5067311;28;20116;-32
2022/04/23 12:50:02;;;;;;;7.28;6.68;;;;;;;;;;5068219;28;20112;-33
2022/04/23 12:52:31;;;;;;;5.88;5.32;;;;;;;;;;5067460;28;20060;-30
2022/04/23 12:55:09;;;;;;;6.75;5.78;;;;;;;;;;5068146;28;20538;-33
2022/04/23 12:57:35;;;;;;;8.35;6.30;;;;;;;;;;5063340;28;20044;-33
2022/04/23 13:00:01;;;;;;;13.10;5.97;;;;;;;;;;5066680;28;20040;-31
2022/04/23 13:02:35;;;;;;;6.25;5.65;;;;;;;;;;5068243;28;20098;-32
2022/04/23 13:05:02;;;;;;;7.82;5.90;;;;;;;;;;5070974;28;20524;-29
2022/04/23 13:10:12;;;;;;;6.43;5.82;;;;;;;;;;5071118;28;20088;-29
2022/04/23 13:12:38;;;;;;;6.10;5.60;;;;;;;;;;5068633;28;20029;-31
2022/04/23 13:15:05;;;;;;;5.80;5.10;;;;;;;;;;5070662;28;20464;-31
2022/04/23 13:17:31;;;;;;;6.05;5.50;;;;;;;;;;5070585;28;20097;-30
2022/04/23 13:19:57;;;;;;;5.65;5.15;;;;;;;;;;5069800;28;20037;-32
2022/04/23 13:22:23;;;;;;;6.13;5.53;;;;;;;;;;5068363;28;20044;-31
2022/04/23 13:24:49;;;;;;;5.75;5.15;;;;;;;;;;5067623;28;20044;-31
2022/04/23 13:27:15;;;;;;;5.95;5.22;;;;;;;;;;5068923;28;20131;-32
2022/04/23 13:29:41;;;;;;;6.50;5.05;;;;;;;;;;5068999;28;20032;-31
2022/04/23 13:32:07;;;;;;;6.20;5.60;;;;;;;;;;5069349;28;20505;-32
2022/04/23 13:34:33;;;;;;;6.30;4.82;;;;;;;;;;5070488;28;20077;-30
2022/04/23 13:36:59;;;;;;;5.25;4.70;;;;;;;;;;5069561;28;20036;-30
2022/04/23 13:39:26;;;;;;;5.15;4.85;;;;;;;;;;5070033;28;20033;-29
2022/04/23 13:41:52;;;;;;;5.80;5.40;;;;;;;;;;5069388;28;20372;-29
2022/04/23 13:44:18;;;;;;;5.45;5.05;;;;;;;;;;5060273;28;20293;-30
2022/04/23 13:46:45;;;;;;;6.25;5.70;;;;;;;;;;5066275;28;20237;-29
2022/04/23 13:49:12;;;;;;;8.18;5.85;;;;;;;;;;5068472;28;20051;-30
2022/04/23 13:51:39;;;;;;;5.63;5.10;;;;;;;;;;5069454;28;20037;-30
2022/04/23 13:54:05;;;;;;;7.22;5.75;;;;;;;;;;5070174;28;20040;-29
2022/04/23 13:56:31;;;;;;;5.57;5.07;;;;;;;;;;5069817;28;20401;-29
2022/04/23 13:58:57;;;;;;;5.35;5.00;;;;;;;;;;5070063;28;20052;-29
2022/04/23 14:01:23;;;;;;;6.43;5.85;;;;;;;;;;5069207;28;20044;-30
2022/04/23 14:12:04;;;;;;;6.22;5.68;;;;;;;;;;5069163;28;20095;-29
2022/04/23 14:14:30;;;;;;;6.55;5.95;;;;;;;;;;5070110;28;20110;-29
2022/04/23 14:16:56;;;;;;;6.60;5.07;;;;;;;;;;5067930;28;20482;-30
2022/04/23 14:19:22;;;;;;;4.93;4.53;;;;;;;;;;5070484;28;20127;-30
2022/04/23 14:21:48;;;;;;;5.35;4.95;;;;;;;;;;5069006;28;20059;-30
2022/04/23 14:24:14;;;;;;;5.20;4.60;;;;;;;;;;5070330;28;20549;-31
2022/04/23 14:26:40;;;;;;;6.20;5.20;;;;;;;;;;5068655;28;20037;-30
2022/04/23 14:29:06;;;;;;;6.15;5.00;;;;;;;;;;5069898;28;20059;-29
2022/04/23 14:31:32;;;;;;;6.45;4.65;;;;;;;;;;5069587;28;20029;-30
2022/04/23 14:33:59;;;;;;;5.15;4.75;;;;;;;;;;5067310;28;20052;-31
2022/04/23 14:36:25;;;;;;;6.75;4.60;;;;;;;;;;5069625;28;20079;-30
2022/04/23 14:38:53;;;;;;;5.68;5.15;;;;;;;;;;5069698;28;20487;-29
2022/04/23 14:41:19;;;;;;;4.90;4.50;;;;;;;;;;5065635;28;20118;-30
2022/04/23 14:43:45;;;;;;;6.40;5.15;;;;;;;;;;5072014;28;20052;-29
2022/04/23 14:46:11;;;;;;;5.45;4.95;;;;;;;;;;5074049;28;20541;-29
2022/04/23 14:48:37;;;;;;;7.57;5.07;;;;;;;;;;5055411;28;20079;-29
2022/04/23 14:53:48;;;;;;;5.22;4.65;;;;;;;;;;5072180;28;20048;-30
2022/04/23 14:56:14;;;;;;;5.18;4.72;;;;;;;;;;5073453;28;20526;-30
2022/04/23 14:58:40;;;;;;;5.15;4.65;;;;;;;;;;5072664;28;20041;-29
2022/04/23 15:01:06;;;;;;;7.07;4.70;;;;;;;;;;5071652;28;20036;-30
2022/04/23 15:03:32;;;;;;;5.00;4.50;;;;;;;;;;5069946;28;20414;-30
2022/04/23 15:05:59;;;;;;;4.45;4.05;;;;;;;;;;5072495;28;20040;-30
2022/04/23 15:08:25;;;;;;;4.47;4.07;;;;;;;;;;5073167;28;20120;-31
2022/04/23 15:10:51;;;;;;;4.50;4.20;;;;;;;;;;5072156;28;20047;-33
2022/04/23 15:13:17;;;;;;;5.05;4.18;;;;;;;;;;5055196;28;20041;-30
2022/04/23 15:15:45;;;;;;;6.25;3.95;;;;;;;;;;5072363;28;20063;-30
2022/04/23 15:18:13;;;;;;;5.32;3.85;;;;;;;;;;5072970;28;20455;-31
2022/04/23 15:20:39;;;;;;;4.55;4.22;;;;;;;;;;5072690;28;20119;-30
2022/04/23 15:23:05;;;;;;;4.30;3.90;;;;;;;;;;5071868;28;20086;-29
2022/04/23 15:25:31;;;;;;;4.60;4.20;;;;;;;;;;5073509;28;20049;-29